createdAt,value
2019-01-30T00:00:12.161Z,99741.53
2019-01-30T00:01:18.648Z,99745.30
2019-01-30T00:02:21.052Z,99744.91
2019-01-30T00:03:23.395Z,99738.02
2019-01-30T00:04:25.806Z,99735.42
2019-01-30T00:05:28.169Z,99741.92
2019-01-30T00:06:30.893Z,99738.80
2019-01-30T00:07:33.257Z,99744.91
2019-01-30T00:08:36.330Z,99739.19
2019-01-30T00:09:38.785Z,99746.20
2019-01-30T00:10:41.219Z,99741.01
2019-01-30T00:11:43.829Z,99743.48
2019-01-30T00:12:46.308Z,99741.40
2019-01-30T00:13:48.965Z,99744.39
2019-01-30T00:14:51.501Z,99743.48
2019-01-30T00:15:56.415Z,99738.28
2019-01-30T00:16:57.586Z,99737.89
2019-01-30T00:17:59.796Z,99741.27
2019-01-30T00:19:02.255Z,99733.47
2019-01-30T00:20:04.457Z,99735.69
2019-01-30T00:21:06.687Z,99734.64
2019-01-30T00:22:08.886Z,99735.03
2019-01-30T00:23:11.088Z,99734.64
2019-01-30T00:24:13.295Z,99729.45
2019-01-30T00:25:15.537Z,99730.75
2019-01-30T00:26:17.755Z,99731.14
2019-01-30T00:27:22.083Z,99730.75
2019-01-30T00:28:24.316Z,99731.92
2019-01-30T00:29:26.731Z,99731.14
2019-01-30T00:30:28.917Z,99728.54
2019-01-30T00:31:31.121Z,99737.63
2019-01-30T00:32:33.424Z,99726.84
2019-01-30T00:33:35.632Z,99727.76
2019-01-30T00:34:37.846Z,99730.75
2019-01-30T00:35:40.071Z,99722.05
2019-01-30T00:36:42.277Z,99729.45
2019-01-30T00:37:44.473Z,99720.74
2019-01-30T00:38:46.680Z,99722.44
2019-01-30T00:39:48.913Z,99722.05
2019-01-30T00:40:51.135Z,99716.84
2019-01-30T00:41:53.346Z,99722.05
2019-01-30T00:42:58.459Z,99712.43
2019-01-30T00:44:01.930Z,99714.12
2019-01-30T00:45:05.650Z,99717.11
2019-01-30T00:46:08.877Z,99722.83
2019-01-30T00:47:15.902Z,99718.41
2019-01-30T00:48:15.190Z,99716.72
2019-01-30T00:49:17.391Z,99720.23
2019-01-30T00:50:19.606Z,99723.21
2019-01-30T00:51:21.839Z,99717.63
2019-01-30T00:52:24.030Z,99720.23
2019-01-30T00:53:26.244Z,99713.21
2019-01-30T00:54:32.202Z,99716.72
2019-01-30T00:55:32.289Z,99711.13
2019-01-30T00:56:34.513Z,99716.33
2019-01-30T00:57:36.717Z,99716.72
2019-01-30T00:58:38.912Z,99718.02
2019-01-30T00:59:41.112Z,99720.09
2019-01-30T01:00:43.319Z,99713.60
2019-01-30T01:01:47.263Z,99712.30
2019-01-30T01:02:49.464Z,99715.42
2019-01-30T01:03:52.181Z,99715.80
2019-01-30T01:04:54.439Z,99710.61
2019-01-30T01:05:56.598Z,99713.60
2019-01-30T01:06:58.948Z,99712.30
2019-01-30T01:08:01.148Z,99715.80
2019-01-30T01:09:04.915Z,99717.50
2019-01-30T01:10:07.130Z,99711.39
2019-01-30T01:11:09.353Z,99714.51
2019-01-30T01:12:11.560Z,99710.09
2019-01-30T01:13:14.608Z,99709.15
2019-01-30T01:14:16.953Z,99707.49
2019-01-30T01:15:19.082Z,99710.45
2019-01-30T01:16:21.303Z,99708.41
2019-01-30T01:17:23.630Z,99711.91
2019-01-30T01:18:25.811Z,99703.59
2019-01-30T01:19:28.023Z,99704.34
2019-01-30T01:20:30.222Z,99703.59
2019-01-30T01:21:32.458Z,99703.59
2019-01-30T01:22:34.666Z,99709.70
2019-01-30T01:23:36.863Z,99707.49
2019-01-30T01:24:39.055Z,99706.20
2019-01-30T01:25:41.271Z,99701.35
2019-01-30T01:26:43.460Z,99706.20
2019-01-30T01:27:45.651Z,99706.55
2019-01-30T01:28:47.839Z,99706.20
2019-01-30T01:29:50.046Z,99705.80
2019-01-30T01:30:52.252Z,99700.44
2019-01-30T01:31:54.475Z,99700.31
2019-01-30T01:32:56.676Z,99703.44
2019-01-30T01:33:58.876Z,99703.44
2019-01-30T01:35:01.082Z,99709.93
2019-01-30T01:36:03.295Z,99703.05
2019-01-30T01:37:05.538Z,99706.55
2019-01-30T01:38:07.743Z,99704.34
2019-01-30T01:39:10.564Z,99708.80
2019-01-30T01:40:12.755Z,99701.35
2019-01-30T01:41:15.968Z,99699.70
2019-01-30T01:42:18.166Z,99700.05
2019-01-30T01:43:20.355Z,99697.10
2019-01-30T01:44:22.564Z,99697.45
2019-01-30T01:45:24.755Z,99695.80
2019-01-30T01:46:26.947Z,99699.70
2019-01-30T01:47:29.164Z,99698.92
2019-01-30T01:48:31.361Z,99697.10
2019-01-30T01:49:33.562Z,99700.05
2019-01-30T01:50:35.757Z,99699.30
2019-01-30T01:51:37.965Z,99690.60
2019-01-30T01:52:40.192Z,99698.92
2019-01-30T01:53:42.362Z,99695.92
2019-01-30T01:54:44.557Z,99692.94
2019-01-30T01:55:46.835Z,99692.94
2019-01-30T01:56:49.060Z,99694.75
2019-01-30T01:57:51.268Z,99692.16
2019-01-30T01:58:53.464Z,99693.84
2019-01-30T01:59:55.676Z,99693.45
2019-01-30T02:00:57.888Z,99694.36
2019-01-30T02:02:01.691Z,99693.97
2019-01-30T02:03:03.882Z,99688.26
2019-01-30T02:04:06.104Z,99687.87
2019-01-30T02:05:10.015Z,99687.87
2019-01-30T02:06:12.226Z,99685.66
2019-01-30T02:07:17.182Z,99690.98
2019-01-30T02:08:19.398Z,99684.48
2019-01-30T02:09:21.596Z,99685.27
2019-01-30T02:10:23.787Z,99685.39
2019-01-30T02:11:25.981Z,99682.80
2019-01-30T02:12:28.176Z,99679.68
2019-01-30T02:13:30.372Z,99680.20
2019-01-30T02:14:32.562Z,99689.30
2019-01-30T02:15:34.751Z,99687.09
2019-01-30T02:16:36.966Z,99685.78
2019-01-30T02:17:39.160Z,99687.21
2019-01-30T02:18:41.296Z,99681.11
2019-01-30T02:19:43.490Z,99683.70
2019-01-30T02:20:45.622Z,99682.02
2019-01-30T02:21:47.846Z,99683.70
2019-01-30T02:22:50.099Z,99680.33
2019-01-30T02:23:52.244Z,99679.80
2019-01-30T02:24:54.449Z,99676.42
2019-01-30T02:25:56.658Z,99680.72
2019-01-30T02:26:58.890Z,99680.72
2019-01-30T02:28:01.078Z,99677.33
2019-01-30T02:29:03.290Z,99680.72
2019-01-30T02:30:05.495Z,99669.41
2019-01-30T02:31:07.705Z,99677.72
2019-01-30T02:32:09.923Z,99674.73
2019-01-30T02:33:12.143Z,99681.75
2019-01-30T02:34:14.338Z,99680.45
2019-01-30T02:35:16.528Z,99682.92
2019-01-30T02:36:18.717Z,99679.02
2019-01-30T02:37:20.926Z,99674.73
2019-01-30T02:38:23.670Z,99674.73
2019-01-30T02:39:25.882Z,99675.77
2019-01-30T02:40:28.072Z,99673.56
2019-01-30T02:41:30.262Z,99673.95
2019-01-30T02:42:32.487Z,99677.45
2019-01-30T02:43:34.676Z,99670.05
2019-01-30T02:44:36.876Z,99670.05
2019-01-30T02:45:39.095Z,99671.36
2019-01-30T02:46:41.325Z,99666.16
2019-01-30T02:47:43.531Z,99669.66
2019-01-30T02:48:45.757Z,99666.16
2019-01-30T02:49:47.938Z,99666.55
2019-01-30T02:50:50.153Z,99664.86
2019-01-30T02:51:52.363Z,99661.34
2019-01-30T02:52:54.555Z,99664.86
2019-01-30T02:53:58.318Z,99664.08
2019-01-30T02:55:00.525Z,99661.86
2019-01-30T02:56:02.732Z,99665.37
2019-01-30T02:57:05.545Z,99662.90
2019-01-30T02:58:07.745Z,99666.80
2019-01-30T02:59:09.953Z,99662.77
2019-01-30T03:00:12.149Z,99658.87
2019-01-30T03:01:14.343Z,99658.09
2019-01-30T03:02:21.521Z,99657.58
2019-01-30T03:03:23.720Z,99651.08
2019-01-30T03:04:26.031Z,99657.19
2019-01-30T03:05:28.230Z,99652.38
2019-01-30T03:06:30.430Z,99654.98
2019-01-30T03:07:32.643Z,99646.27
2019-01-30T03:08:34.779Z,99651.08
2019-01-30T03:09:36.977Z,99648.09
2019-01-30T03:10:39.162Z,99652.50
2019-01-30T03:11:41.295Z,99651.59
2019-01-30T03:12:43.515Z,99651.98
2019-01-30T03:13:45.708Z,99647.58
2019-01-30T03:14:47.912Z,99652.38
2019-01-30T03:15:52.563Z,99650.30
2019-01-30T03:16:54.757Z,99650.69
2019-01-30T03:17:56.977Z,99653.28
2019-01-30T03:18:59.181Z,99655.89
2019-01-30T03:20:01.364Z,99654.59
2019-01-30T03:21:05.143Z,99663.30
2019-01-30T03:22:07.345Z,99649.39
2019-01-30T03:23:09.553Z,99656.80
2019-01-30T03:24:11.683Z,99658.09
2019-01-30T03:25:13.903Z,99654.59
2019-01-30T03:26:16.097Z,99656.80
2019-01-30T03:27:18.570Z,99658.48
2019-01-30T03:28:20.801Z,99661.99
2019-01-30T03:29:23.608Z,99659.00
2019-01-30T03:30:26.335Z,99656.80
2019-01-30T03:31:28.633Z,99655.89
2019-01-30T03:32:30.848Z,99656.28
2019-01-30T03:33:33.045Z,99659.78
2019-01-30T03:34:36.837Z,99661.99
2019-01-30T03:35:39.036Z,99660.69
2019-01-30T03:36:44.955Z,99657.19
2019-01-30T03:37:49.223Z,99655.89
2019-01-30T03:38:51.442Z,99656.28
2019-01-30T03:39:53.641Z,99656.67
2019-01-30T03:40:55.852Z,99657.19
2019-01-30T03:41:58.054Z,99660.69
2019-01-30T03:43:00.311Z,99657.19
2019-01-30T03:44:02.508Z,99665.89
2019-01-30T03:45:04.707Z,99661.08
2019-01-30T03:46:06.931Z,99657.58
2019-01-30T03:47:09.122Z,99662.77
2019-01-30T03:48:14.851Z,99660.56
2019-01-30T03:49:17.056Z,99660.17
2019-01-30T03:50:19.258Z,99661.08
2019-01-30T03:51:21.468Z,99659.78
2019-01-30T03:52:23.701Z,99660.17
2019-01-30T03:53:25.907Z,99662.38
2019-01-30T03:54:28.113Z,99658.87
2019-01-30T03:55:30.837Z,99660.56
2019-01-30T03:56:34.906Z,99663.17
2019-01-30T03:57:36.889Z,99661.86
2019-01-30T03:58:39.115Z,99653.16
2019-01-30T03:59:41.330Z,99661.47
2019-01-30T04:00:43.517Z,99663.17
2019-01-30T04:01:45.726Z,99658.36
2019-01-30T04:02:47.927Z,99655.77
2019-01-30T04:03:50.145Z,99660.95
2019-01-30T04:04:52.347Z,99653.55
2019-01-30T04:05:54.555Z,99658.36
2019-01-30T04:06:56.764Z,99654.06
2019-01-30T04:07:58.971Z,99657.58
2019-01-30T04:09:01.215Z,99656.67
2019-01-30T04:10:03.420Z,99658.75
2019-01-30T04:11:05.638Z,99654.45
2019-01-30T04:12:07.938Z,99655.24
2019-01-30T04:13:10.147Z,99654.85
2019-01-30T04:14:12.370Z,99660.95
2019-01-30T04:15:14.591Z,99658.87
2019-01-30T04:16:16.810Z,99655.77
2019-01-30T04:17:19.071Z,99659.27
2019-01-30T04:18:21.293Z,99657.45
2019-01-30T04:19:23.495Z,99654.45
2019-01-30T04:20:26.884Z,99654.06
2019-01-30T04:21:31.570Z,99654.85
2019-01-30T04:22:33.767Z,99653.67
2019-01-30T04:23:35.986Z,99654.85
2019-01-30T04:24:38.385Z,99650.95
2019-01-30T04:25:40.583Z,99654.06
2019-01-30T04:26:42.783Z,99658.36
2019-01-30T04:27:45.003Z,99655.77
2019-01-30T04:28:47.229Z,99659.27
2019-01-30T04:29:49.432Z,99660.05
2019-01-30T04:30:51.634Z,99659.66
2019-01-30T04:31:53.838Z,99659.27
2019-01-30T04:32:56.044Z,99658.36
2019-01-30T04:34:00.625Z,99653.16
2019-01-30T04:35:02.820Z,99658.36
2019-01-30T04:36:05.531Z,99654.98
2019-01-30T04:37:07.714Z,99655.24
2019-01-30T04:38:11.934Z,99650.56
2019-01-30T04:39:14.149Z,99652.25
2019-01-30T04:40:16.360Z,99649.27
2019-01-30T04:41:18.564Z,99649.27
2019-01-30T04:42:20.779Z,99653.55
2019-01-30T04:43:22.984Z,99644.84
2019-01-30T04:44:25.224Z,99649.27
2019-01-30T04:45:27.416Z,99646.27
2019-01-30T04:46:29.627Z,99647.05
2019-01-30T04:47:33.407Z,99649.66
2019-01-30T04:48:35.621Z,99650.17
2019-01-30T04:49:37.851Z,99643.94
2019-01-30T04:50:41.403Z,99643.16
2019-01-30T04:51:43.558Z,99641.34
2019-01-30T04:52:45.770Z,99641.86
2019-01-30T04:53:47.998Z,99639.65
2019-01-30T04:54:50.218Z,99643.16
2019-01-30T04:55:52.444Z,99641.47
2019-01-30T04:56:54.622Z,99644.06
2019-01-30T04:57:58.268Z,99643.28
2019-01-30T04:59:00.653Z,99643.67
2019-01-30T05:00:02.858Z,99644.06
2019-01-30T05:01:05.054Z,99645.75
2019-01-30T05:02:07.292Z,99645.75
2019-01-30T05:03:09.496Z,99646.53
2019-01-30T05:04:14.028Z,99654.85
2019-01-30T05:05:16.424Z,99652.25
2019-01-30T05:06:18.632Z,99647.97
2019-01-30T05:07:21.084Z,99650.17
2019-01-30T05:08:23.289Z,99645.75
2019-01-30T05:09:25.498Z,99648.36
2019-01-30T05:10:27.715Z,99650.95
2019-01-30T05:11:29.910Z,99652.64
2019-01-30T05:12:32.121Z,99649.66
2019-01-30T05:13:34.318Z,99646.66
2019-01-30T05:14:36.521Z,99647.45
2019-01-30T05:15:38.724Z,99648.75
2019-01-30T05:16:40.918Z,99650.05
2019-01-30T05:17:43.125Z,99648.36
2019-01-30T05:18:45.346Z,99644.84
2019-01-30T05:19:47.582Z,99647.05
2019-01-30T05:20:49.794Z,99642.25
2019-01-30T05:21:52.174Z,99649.78
2019-01-30T05:22:54.388Z,99647.45
2019-01-30T05:23:59.117Z,99645.36
2019-01-30T05:25:01.326Z,99643.67
2019-01-30T05:26:03.542Z,99638.86
2019-01-30T05:27:05.730Z,99639.26
2019-01-30T05:28:07.930Z,99643.28
2019-01-30T05:29:10.178Z,99638.86
2019-01-30T05:30:12.373Z,99640.17
2019-01-30T05:31:15.210Z,99630.55
2019-01-30T05:32:17.429Z,99643.67
2019-01-30T05:33:21.361Z,99635.87
2019-01-30T05:34:23.608Z,99633.28
2019-01-30T05:35:25.992Z,99633.28
2019-01-30T05:36:28.214Z,99634.58
2019-01-30T05:37:30.416Z,99635.48
2019-01-30T05:38:32.630Z,99629.11
2019-01-30T05:39:37.619Z,99632.50
2019-01-30T05:40:39.820Z,99634.70
2019-01-30T05:41:42.025Z,99627.30
2019-01-30T05:42:44.227Z,99628.72
2019-01-30T05:43:46.430Z,99632.23
2019-01-30T05:44:48.664Z,99630.02
2019-01-30T05:45:50.858Z,99640.58
2019-01-30T05:46:53.066Z,99639.28
2019-01-30T05:47:55.255Z,99635.50
2019-01-30T05:48:57.451Z,99638.88
2019-01-30T05:49:59.684Z,99643.69
2019-01-30T05:51:01.919Z,99637.20
2019-01-30T05:52:04.624Z,99641.09
2019-01-30T05:53:06.829Z,99637.20
2019-01-30T05:54:09.032Z,99641.09
2019-01-30T05:55:14.328Z,99641.09
2019-01-30T05:56:16.629Z,99636.28
2019-01-30T05:57:18.886Z,99637.59
2019-01-30T05:58:24.617Z,99638.88
2019-01-30T05:59:27.023Z,99631.48
2019-01-30T06:00:31.072Z,99641.09
2019-01-30T06:01:33.278Z,99640.42
2019-01-30T06:02:37.496Z,99632.63
2019-01-30T06:03:39.696Z,99635.61
2019-01-30T06:04:41.953Z,99638.20
2019-01-30T06:05:44.136Z,99636.00
2019-01-30T06:06:46.338Z,99636.78
2019-01-30T06:07:48.532Z,99639.38
2019-01-30T06:08:50.724Z,99639.38
2019-01-30T06:09:52.928Z,99636.27
2019-01-30T06:10:55.128Z,99632.38
2019-01-30T06:11:57.338Z,99636.66
2019-01-30T06:12:59.536Z,99638.34
2019-01-30T06:14:01.740Z,99641.34
2019-01-30T06:15:03.980Z,99637.83
2019-01-30T06:16:06.157Z,99639.00
2019-01-30T06:17:09.729Z,99643.81
2019-01-30T06:18:12.098Z,99646.80
2019-01-30T06:19:15.474Z,99642.78
2019-01-30T06:20:17.613Z,99642.78
2019-01-30T06:21:19.808Z,99640.18
2019-01-30T06:22:21.999Z,99641.48
2019-01-30T06:23:24.204Z,99639.27
2019-01-30T06:24:26.430Z,99639.66
2019-01-30T06:25:28.615Z,99639.14
2019-01-30T06:26:30.815Z,99641.74
2019-01-30T06:27:33.036Z,99643.83
2019-01-30T06:28:35.223Z,99632.48
2019-01-30T06:29:37.695Z,99633.43
2019-01-30T06:30:39.901Z,99633.79
2019-01-30T06:31:42.107Z,99636.39
2019-01-30T06:32:44.311Z,99638.47
2019-01-30T06:33:46.517Z,99641.59
2019-01-30T06:34:48.722Z,99641.06
2019-01-30T06:35:50.911Z,99639.77
2019-01-30T06:36:53.215Z,99640.55
2019-01-30T06:37:55.426Z,99640.94
2019-01-30T06:38:57.631Z,99640.42
2019-01-30T06:39:59.849Z,99640.81
2019-01-30T06:41:02.060Z,99646.02
2019-01-30T06:42:04.259Z,99639.91
2019-01-30T06:43:06.761Z,99639.39
2019-01-30T06:44:08.984Z,99649.00
2019-01-30T06:45:11.199Z,99650.81
2019-01-30T06:46:13.397Z,99651.20
2019-01-30T06:47:15.605Z,99649.39
2019-01-30T06:48:17.824Z,99649.78
2019-01-30T06:49:20.047Z,99650.69
2019-01-30T06:50:22.251Z,99652.38
2019-01-30T06:51:24.455Z,99652.38
2019-01-30T06:52:26.663Z,99650.30
2019-01-30T06:53:31.184Z,99647.19
2019-01-30T06:54:33.405Z,99650.69
2019-01-30T06:55:35.529Z,99654.98
2019-01-30T06:56:37.738Z,99644.85
2019-01-30T06:57:39.944Z,99657.06
2019-01-30T06:58:42.154Z,99650.05
2019-01-30T06:59:44.365Z,99648.75
2019-01-30T07:00:46.564Z,99646.54
2019-01-30T07:01:48.784Z,99645.24
2019-01-30T07:02:50.980Z,99653.03
2019-01-30T07:03:53.187Z,99655.12
2019-01-30T07:04:55.414Z,99661.61
2019-01-30T07:05:57.607Z,99654.20
2019-01-30T07:06:59.825Z,99659.41
2019-01-30T07:08:02.029Z,99656.68
2019-01-30T07:09:05.143Z,99653.69
2019-01-30T07:10:07.367Z,99654.20
2019-01-30T07:11:10.568Z,99655.90
2019-01-30T07:12:13.279Z,99662.39
2019-01-30T07:13:15.471Z,99662.78
2019-01-30T07:14:19.602Z,99660.58
2019-01-30T07:15:21.461Z,99663.69
2019-01-30T07:16:23.675Z,99661.36
2019-01-30T07:17:25.891Z,99663.56
2019-01-30T07:18:28.099Z,99658.37
2019-01-30T07:19:30.315Z,99666.16
2019-01-30T07:20:32.518Z,99664.86
2019-01-30T07:21:34.727Z,99669.16
2019-01-30T07:22:36.924Z,99664.19
2019-01-30T07:23:39.126Z,99669.16
2019-01-30T07:24:41.379Z,99669.16
2019-01-30T07:25:43.564Z,99666.55
2019-01-30T07:26:45.768Z,99666.91
2019-01-30T07:27:47.984Z,99668.08
2019-01-30T07:28:50.253Z,99675.09
2019-01-30T07:29:52.479Z,99666.78
2019-01-30T07:30:54.681Z,99672.11
2019-01-30T07:31:56.895Z,99673.28
2019-01-30T07:32:59.120Z,99666.78
2019-01-30T07:34:01.323Z,99673.41
2019-01-30T07:35:03.567Z,99671.06
2019-01-30T07:36:05.774Z,99667.86
2019-01-30T07:37:08.002Z,99669.51
2019-01-30T07:38:10.212Z,99673.80
2019-01-30T07:39:12.810Z,99668.08
2019-01-30T07:40:15.052Z,99671.98
2019-01-30T07:41:17.256Z,99667.17
2019-01-30T07:42:19.473Z,99673.80
2019-01-30T07:43:22.998Z,99669.90
2019-01-30T07:44:25.375Z,99672.11
2019-01-30T07:45:27.574Z,99675.09
2019-01-30T07:46:29.776Z,99677.30
2019-01-30T07:47:31.993Z,99681.20
2019-01-30T07:48:34.215Z,99678.99
2019-01-30T07:49:36.421Z,99673.67
2019-01-30T07:50:38.667Z,99671.46
2019-01-30T07:51:40.871Z,99680.16
2019-01-30T07:52:43.076Z,99679.77
2019-01-30T07:53:45.282Z,99681.07
2019-01-30T07:54:47.494Z,99681.07
2019-01-30T07:55:49.739Z,99681.20
2019-01-30T07:56:52.478Z,99683.44
2019-01-30T07:57:54.686Z,99683.44
2019-01-30T07:58:57.114Z,99681.59
2019-01-30T07:59:59.323Z,99676.78
2019-01-30T08:01:01.560Z,99681.46
2019-01-30T08:02:03.775Z,99685.09
2019-01-30T08:03:05.984Z,99684.19
2019-01-30T08:04:08.195Z,99684.06
2019-01-30T08:05:10.557Z,99680.16
2019-01-30T08:06:12.790Z,99683.16
2019-01-30T08:07:15.010Z,99682.77
2019-01-30T08:08:17.208Z,99680.55
2019-01-30T08:09:19.403Z,99685.36
2019-01-30T08:10:21.531Z,99682.24
2019-01-30T08:11:23.760Z,99682.63
2019-01-30T08:12:25.972Z,99686.92
2019-01-30T08:13:28.184Z,99685.62
2019-01-30T08:14:30.380Z,99680.81
2019-01-30T08:15:32.584Z,99689.00
2019-01-30T08:16:34.822Z,99691.59
2019-01-30T08:17:37.032Z,99694.59
2019-01-30T08:18:39.239Z,99685.49
2019-01-30T08:19:41.438Z,99689.91
2019-01-30T08:20:43.674Z,99684.97
2019-01-30T08:21:45.916Z,99688.87
2019-01-30T08:22:48.139Z,99684.59
2019-01-30T08:23:50.642Z,99681.47
2019-01-30T08:24:53.312Z,99684.06
2019-01-30T08:25:55.834Z,99685.36
2019-01-30T08:26:58.391Z,99690.95
2019-01-30T08:28:01.033Z,99685.23
2019-01-30T08:29:05.239Z,99684.45
2019-01-30T08:30:07.708Z,99688.23
2019-01-30T08:31:10.430Z,99687.05
2019-01-30T08:32:13.484Z,99681.34
2019-01-30T08:33:15.711Z,99682.64
2019-01-30T08:34:17.860Z,99691.73
2019-01-30T08:35:20.070Z,99682.64
2019-01-30T08:36:22.276Z,99686.41
2019-01-30T08:37:24.511Z,99683.03
2019-01-30T08:38:26.731Z,99689.13
2019-01-30T08:39:28.946Z,99690.83
2019-01-30T08:40:31.150Z,99682.52
2019-01-30T08:41:33.356Z,99689.39
2019-01-30T08:42:36.227Z,99679.00
2019-01-30T08:43:38.447Z,99691.22
2019-01-30T08:44:46.893Z,99685.50
2019-01-30T08:45:44.498Z,99685.89
2019-01-30T08:46:47.820Z,99689.00
2019-01-30T08:47:50.059Z,99680.30
2019-01-30T08:48:52.268Z,99685.50
2019-01-30T08:49:54.456Z,99685.50
2019-01-30T08:50:56.656Z,99679.78
2019-01-30T08:51:58.857Z,99681.60
2019-01-30T08:53:01.082Z,99685.50
2019-01-30T08:54:03.297Z,99680.30
2019-01-30T08:55:05.505Z,99675.89
2019-01-30T08:56:07.716Z,99681.99
2019-01-30T08:57:09.944Z,99685.50
2019-01-30T08:58:12.188Z,99681.21
2019-01-30T08:59:14.388Z,99682.52
2019-01-30T09:00:16.592Z,99681.99
2019-01-30T09:01:18.786Z,99680.30
2019-01-30T09:02:21.207Z,99680.30
2019-01-30T09:03:23.440Z,99679.39
2019-01-30T09:04:25.856Z,99684.45
2019-01-30T09:05:28.176Z,99679.39
2019-01-30T09:06:30.372Z,99679.52
2019-01-30T09:07:43.669Z,99680.30
2019-01-30T09:08:36.473Z,99681.09
2019-01-30T09:09:38.700Z,99676.67
2019-01-30T09:10:40.912Z,99687.33
2019-01-30T09:11:43.131Z,99685.92
2019-01-30T09:12:45.352Z,99681.89
2019-01-30T09:13:47.593Z,99684.34
2019-01-30T09:14:49.792Z,99685.38
2019-01-30T09:15:51.987Z,99681.77
2019-01-30T09:16:54.198Z,99678.91
2019-01-30T09:17:57.482Z,99683.06
2019-01-30T09:19:00.411Z,99684.09
2019-01-30T09:20:02.767Z,99690.09
2019-01-30T09:21:04.947Z,99686.75
2019-01-30T09:22:07.146Z,99695.97
2019-01-30T09:23:09.347Z,99694.80
2019-01-30T09:24:11.571Z,99694.92
2019-01-30T09:25:13.784Z,99690.63
2019-01-30T09:26:15.985Z,99695.05
2019-01-30T09:27:18.178Z,99691.15
2019-01-30T09:28:20.372Z,99693.36
2019-01-30T09:29:22.600Z,99687.77
2019-01-30T09:30:24.799Z,99692.97
2019-01-30T09:31:26.993Z,99693.88
2019-01-30T09:32:29.190Z,99693.88
2019-01-30T09:33:31.392Z,99689.85
2019-01-30T09:34:33.648Z,99692.45
2019-01-30T09:35:37.450Z,99695.44
2019-01-30T09:36:39.671Z,99694.53
2019-01-30T09:37:41.833Z,99689.20
2019-01-30T09:38:44.042Z,99690.38
2019-01-30T09:39:48.588Z,99693.38
2019-01-30T09:40:50.147Z,99694.16
2019-01-30T09:41:52.378Z,99693.64
2019-01-30T09:42:54.579Z,99698.28
2019-01-30T09:43:59.541Z,99685.55
2019-01-30T09:45:01.763Z,99697.61
2019-01-30T09:46:04.077Z,99688.77
2019-01-30T09:47:06.284Z,99695.79
2019-01-30T09:48:08.481Z,99691.25
2019-01-30T09:49:10.740Z,99692.42
2019-01-30T09:50:12.950Z,99698.80
2019-01-30T09:51:15.218Z,99687.87
2019-01-30T09:52:26.717Z,99693.70
2019-01-30T09:53:21.838Z,99699.80
2019-01-30T09:54:24.042Z,99699.68
2019-01-30T09:55:26.277Z,99698.64
2019-01-30T09:56:28.491Z,99697.73
2019-01-30T09:57:30.675Z,99698.00
2019-01-30T09:58:32.892Z,99700.98
2019-01-30T09:59:35.092Z,99696.97
2019-01-30T10:00:40.024Z,99691.64
2019-01-30T10:01:42.239Z,99695.53
2019-01-30T10:02:44.480Z,99694.11
2019-01-30T10:03:46.706Z,99703.20
2019-01-30T10:04:48.920Z,99695.80
2019-01-30T10:05:51.127Z,99697.84
2019-01-30T10:06:53.329Z,99695.13
2019-01-30T10:07:55.560Z,99692.00
2019-01-30T10:08:57.769Z,99697.59
2019-01-30T10:09:59.974Z,99702.27
2019-01-30T10:11:02.165Z,99693.17
2019-01-30T10:12:04.392Z,99690.84
2019-01-30T10:13:06.615Z,99688.63
2019-01-30T10:14:08.823Z,99689.54
2019-01-30T10:15:11.129Z,99691.62
2019-01-30T10:16:13.351Z,99691.10
2019-01-30T10:17:15.564Z,99692.02
2019-01-30T10:18:17.823Z,99693.18
2019-01-30T10:19:20.032Z,99687.47
2019-01-30T10:20:22.243Z,99688.25
2019-01-30T10:21:24.455Z,99696.56
2019-01-30T10:22:26.675Z,99688.09
2019-01-30T10:23:28.893Z,99685.48
2019-01-30T10:24:31.118Z,99696.27
2019-01-30T10:25:33.311Z,99686.66
2019-01-30T10:26:35.526Z,99693.55
2019-01-30T10:27:37.795Z,99693.94
2019-01-30T10:28:40.054Z,99692.63
2019-01-30T10:29:42.262Z,99689.00
2019-01-30T10:30:44.481Z,99690.69
2019-01-30T10:31:46.687Z,99689.00
2019-01-30T10:32:48.894Z,99691.08
2019-01-30T10:33:51.280Z,99693.67
2019-01-30T10:34:53.461Z,99697.58
2019-01-30T10:35:55.608Z,99692.38
2019-01-30T10:36:57.821Z,99689.78
2019-01-30T10:38:00.026Z,99682.77
2019-01-30T10:39:02.247Z,99685.36
2019-01-30T10:40:04.470Z,99686.66
2019-01-30T10:41:06.667Z,99679.66
2019-01-30T10:42:08.879Z,99679.66
2019-01-30T10:43:11.088Z,99680.95
2019-01-30T10:44:13.321Z,99683.55
2019-01-30T10:45:15.526Z,99679.27
2019-01-30T10:46:17.752Z,99678.88
2019-01-30T10:47:19.984Z,99682.64
2019-01-30T10:48:22.219Z,99677.05
2019-01-30T10:49:24.461Z,99675.75
2019-01-30T10:50:30.059Z,99677.57
2019-01-30T10:51:32.282Z,99674.45
2019-01-30T10:52:34.486Z,99681.86
2019-01-30T10:53:36.800Z,99675.36
2019-01-30T10:54:39.031Z,99671.98
2019-01-30T10:55:41.248Z,99676.79
2019-01-30T10:56:43.478Z,99670.42
2019-01-30T10:57:45.698Z,99667.05
2019-01-30T10:58:47.914Z,99675.65
2019-01-30T10:59:50.138Z,99672.91
2019-01-30T11:00:53.909Z,99673.17
2019-01-30T11:01:56.102Z,99674.33
2019-01-30T11:02:58.289Z,99673.45
2019-01-30T11:04:00.719Z,99677.20
2019-01-30T11:05:03.350Z,99671.36
2019-01-30T11:06:05.561Z,99669.01
2019-01-30T11:07:07.883Z,99667.87
2019-01-30T11:08:10.084Z,99666.82
2019-01-30T11:09:12.295Z,99664.86
2019-01-30T11:10:14.528Z,99665.66
2019-01-30T11:11:16.733Z,99667.64
2019-01-30T11:12:19.208Z,99661.66
2019-01-30T11:13:21.412Z,99662.30
2019-01-30T11:14:23.616Z,99669.05
2019-01-30T11:15:26.441Z,99660.86
2019-01-30T11:16:28.636Z,99653.97
2019-01-30T11:17:30.820Z,99660.33
2019-01-30T11:18:33.029Z,99659.54
2019-01-30T11:19:35.280Z,99656.94
2019-01-30T11:20:37.498Z,99657.09
2019-01-30T11:21:39.724Z,99647.61
2019-01-30T11:22:41.935Z,99649.03
2019-01-30T11:23:44.131Z,99649.42
2019-01-30T11:24:46.379Z,99648.64
2019-01-30T11:25:48.630Z,99644.22
2019-01-30T11:26:50.833Z,99647.34
2019-01-30T11:27:55.360Z,99649.16
2019-01-30T11:28:59.589Z,99648.64
2019-01-30T11:30:01.796Z,99641.11
2019-01-30T11:31:04.035Z,99646.70
2019-01-30T11:32:06.247Z,99643.19
2019-01-30T11:33:08.440Z,99643.94
2019-01-30T11:34:10.632Z,99640.83
2019-01-30T11:35:14.040Z,99637.70
2019-01-30T11:36:16.266Z,99635.50
2019-01-30T11:37:20.760Z,99635.89
2019-01-30T11:38:22.972Z,99637.97
2019-01-30T11:39:25.200Z,99633.95
2019-01-30T11:40:27.392Z,99626.94
2019-01-30T11:41:29.640Z,99633.31
2019-01-30T11:42:31.850Z,99627.59
2019-01-30T11:43:34.152Z,99629.16
2019-01-30T11:44:39.880Z,99620.45
2019-01-30T11:45:42.073Z,99627.34
2019-01-30T11:46:44.420Z,99622.77
2019-01-30T11:47:46.640Z,99622.22
2019-01-30T11:48:56.207Z,99620.41
2019-01-30T11:49:52.820Z,99617.69
2019-01-30T11:50:55.042Z,99621.58
2019-01-30T11:51:57.272Z,99617.05
2019-01-30T11:52:59.488Z,99612.63
2019-01-30T11:54:04.862Z,99613.41
2019-01-30T11:55:08.692Z,99614.19
2019-01-30T11:56:10.847Z,99611.83
2019-01-30T11:57:13.074Z,99610.02
2019-01-30T11:58:15.271Z,99611.31
2019-01-30T11:59:17.474Z,99617.30
2019-01-30T12:00:26.852Z,99622.09
2019-01-30T12:01:29.052Z,99611.58
2019-01-30T12:02:31.293Z,99610.55
2019-01-30T12:03:33.479Z,99615.74
2019-01-30T12:04:35.684Z,99615.74
2019-01-30T12:05:37.881Z,99611.33
2019-01-30T12:06:40.117Z,99609.52
2019-01-30T12:07:42.311Z,99608.09
2019-01-30T12:08:44.524Z,99613.67
2019-01-30T12:09:46.735Z,99615.37
2019-01-30T12:10:48.926Z,99612.64
2019-01-30T12:11:51.136Z,99608.19
2019-01-30T12:12:53.364Z,99606.50